Airfield :
LOGIN :

Register | Disclaimer

   EN    FR    IT 

 










Legend :    VFR   Marginal VFR   IFR   Intensive IFR   Very Intensive IFR
Visi :
Ceiling :
>= 8 km
>= 3000ft
5 to 8 km
1000 to 3000 ft
1500m to 5 km
500 to 1000 ft
800 to 1500m
200 to 500 ft
< 800m
< 200 ft
Symbols :   Thunderstorms  Fog  Heavy snow  Heavy precipitations  Wind > 20 kt
SIGMETs :     Misc.  Thunderstorms  Icing  Turbulence  Mountain Waves  Volcanic Ashes






- Airport Elevation : 358 ft


EGTC - Cranfield

CURRENT METAR :
  • 041250Z 22020KT 9999 FEW021 SCT037 18/12 Q1014

EXPIRED METARs :
  • 041220Z 22017KT 9999 SCT037 17/12 Q1015
  • 041150Z 22018KT 9999 SCT015 BKN027 16/12 Q1015
  • 041120Z 22017KT 9999 BKN018 16/12 Q1015
  • 041050Z 22015KT 9999 BKN018 16/12 Q1016
  • 041020Z 22016KT 9999 FEW015 BKN024 16/12 Q1015

TAF TAF EGTC
Valid from the 04 at 12:00 until the 04 at 18:00 UTC


041057Z 0412/0418 22013KT 9999 SCT020
PROB40
TEMPO 0412/0418 23016G26KT
PROB30
TEMPO 0416/0418 8000 -RA BKN014



MET'MAP, your aeronautical weather chart ! - Copyright ORBIFLY December 2007 - Disclaimer

ORBIFLY MET'MAP TEAM :

Programming & Development : Alexandra Zaïnal
Original concept : Baudouin d'Aumeries
Technical & hardware support : Manuel Goepfert
Assistance : Marc-Olivier Méhu




SOURCES & CREDITS :

   NOAA